الصفحة الرئيسية
METAR-TAF:

METAR-TAF

مطار :

Tôlanaro, مدغشقر

دائرة عرض: 25-02S, خط طول: 046-57E, ارتفاع: 8 متر

مراقبة الطقس الحالي

تاريخ ووقت الإصدار 5ساعات و 38 دقيقة قبل الساعة 18:00UTC
ريح 4 عقدة من الشرق
درجة الحرارة 21°درجة مئوية
الرطوبة 83%
ضغط 1023 hPa
الرؤية 10 كم أو أكثر
غيوم متفرقة على ارتفاع 2000 قدم
غيوم متفرقة على ارتفاع 3300 قدم

METAR: FMSD 031800Z 08004KT 9999 SCT020 SCT033 21/18 Q1023

زمن: 02:38 (23:38 UTC)

توقعات

تاريخ ووقت الإصدار 6ساعات و 38 دقيقة قبل الساعة 17:00UTC
التوقعات صالحة من03 الساعة 18 UTC إلى 04 الساعة 18 UTC
ريح 10 عقدة من الشرق
الرؤية 10 كم أو أكثر
غيوم متفرقة على ارتفاع 1600 قدم
غيوم متفرقة على ارتفاع 3300 قدم
نظرية الاحتمالات 30% :
مؤقت
من 04 الساعة 06 UTC إلى 04 الساعة 12 UTC
الرؤية: 4500 متر
زخات من المطر

TAF: FMSD 031700Z 0318/0418 08010KT 9999 SCT016 SCT033 PROB30 TEMPO 0406/0412 4500 SHRA

أرصاد الطقس والتوقعات من أكثر من 4000 مطار (تقارير الطقس للمطار METAR والتنبؤ بالطقس بالمطارTAF).

المحطات المتاحة هي النقط الصفراء والحمراء على الخريطة.

حرك المؤشر فوق النقطة لمعرفة اسم المحطة.

ثم انقر لمعرفة أرصاد وتوقعات الطقس.

لتغيير الخارطة: اضغط على الأزرار الخضراء مع رمز الصليب الأسود للتكبير. على الزر الأخضر مع شرطة للتصغير، أو على الأسهم الخضراء للخرائط المجاورة.


METAR-TAF: